KSPI/SPI METAR and TAF weather

Enter ICAO airport designator
Station Type Date Time Source
KSPI METAR 2021/07/26 13:52 UTC NOAA

KSPI 261352Z 00000KT 10SM CLR 26/19 A3005 RMK AO2 SLP170 T02610194


Station Type Date Time Source
KSPI Decoded METAR 2021/07/26 13:52 UTC NOAA

ABRAHAM LINCOLN CAPITAL AIRPORT , IL, United States (KSPI) 39-51N 89-41W 181M
Jul 26, 2021 - 09:52 AM EDT / 2021.07.26 1352 UTC
Wind: Calm:0
Visibility: 10 mile(s):0
Sky conditions: clear
Temperature: 79.0 F (26.1 C)
Dew Point: 66.9 F (19.4 C)
Relative Humidity: 66%
Pressure (altimeter): 30.05 in. Hg (1017 hPa)
ob: KSPI 261352Z 00000KT 10SM CLR 26/19 A3005 RMK AO2 SLP170 T02610194
cycle: 14

Station Type Date Time Source
KSPI TAF 2021/07/26 13:06 UTC NOAA

TAF
AMD KSPI 261305Z 2613/2712 VRB03KT P6SM SKC

Example: see airport list